createdAt,value
2023-03-31T00:00:59.364Z,32.00
2023-03-31T00:01:59.345Z,32.02
2023-03-31T00:02:59.462Z,32.00
2023-03-31T00:03:59.749Z,31.98
2023-03-31T00:04:59.553Z,31.99
2023-03-31T00:05:59.449Z,31.97
2023-03-31T00:06:59.453Z,31.97
2023-03-31T00:07:59.472Z,31.97
2023-03-31T00:08:59.486Z,31.96
2023-03-31T00:10:14.376Z,31.95
2023-03-31T00:11:00.497Z,31.94
2023-03-31T00:11:59.460Z,31.92
2023-03-31T00:12:59.469Z,31.91
2023-03-31T00:13:59.413Z,31.90
2023-03-31T00:14:59.376Z,31.91
2023-03-31T00:15:59.394Z,31.89
2023-03-31T00:16:59.458Z,31.88
2023-03-31T00:17:59.372Z,31.86
2023-03-31T00:18:59.264Z,31.86
2023-03-31T00:19:59.282Z,31.85
2023-03-31T00:21:00.558Z,31.87
2023-03-31T00:21:59.217Z,31.85
2023-03-31T00:22:59.152Z,31.86
2023-03-31T00:23:59.125Z,31.84
2023-03-31T00:24:59.188Z,31.83
2023-03-31T00:25:59.112Z,31.81
2023-03-31T00:26:59.077Z,31.81
2023-03-31T00:27:59.078Z,31.81
2023-03-31T00:28:59.034Z,31.77
2023-03-31T00:29:59.008Z,31.77
2023-03-31T00:30:58.979Z,31.76
2023-03-31T00:31:58.941Z,31.78
2023-03-31T00:32:58.914Z,31.75
2023-03-31T00:33:58.869Z,31.75
2023-03-31T00:34:58.860Z,31.75
2023-03-31T00:35:58.818Z,31.76
2023-03-31T00:36:58.778Z,31.74
2023-03-31T00:37:58.746Z,31.71
2023-03-31T00:38:58.707Z,31.72
2023-03-31T00:39:58.672Z,31.73
2023-03-31T00:40:58.645Z,31.70
2023-03-31T00:41:58.632Z,31.70
2023-03-31T00:42:58.965Z,31.70
2023-03-31T00:43:58.552Z,31.69
2023-03-31T00:44:58.534Z,31.68
2023-03-31T00:45:58.500Z,31.67
2023-03-31T00:46:58.457Z,31.65
2023-03-31T00:47:58.490Z,31.65
2023-03-31T00:48:58.400Z,31.66
2023-03-31T00:49:58.390Z,31.62
2023-03-31T00:50:58.334Z,31.63
2023-03-31T00:51:58.307Z,31.63
2023-03-31T00:52:58.293Z,31.63
2023-03-31T00:53:58.242Z,31.62
2023-03-31T00:54:58.214Z,31.61
2023-03-31T00:55:58.195Z,31.60
2023-03-31T00:56:58.238Z,31.58
2023-03-31T00:57:58.136Z,31.58
2023-03-31T00:58:58.112Z,31.59
2023-03-31T00:59:58.096Z,31.57
2023-03-31T01:00:58.083Z,31.57
2023-03-31T01:01:58.093Z,31.58
2023-03-31T01:02:58.063Z,31.59
2023-03-31T01:03:58.006Z,31.59
2023-03-31T01:04:57.967Z,31.56
2023-03-31T01:05:57.926Z,31.56
2023-03-31T01:06:57.877Z,31.52
2023-03-31T01:07:57.886Z,31.54
2023-03-31T01:08:57.847Z,31.53
2023-03-31T01:09:57.807Z,31.52
2023-03-31T01:10:57.815Z,31.52
2023-03-31T01:11:57.766Z,31.50
2023-03-31T01:12:57.744Z,31.51
2023-03-31T01:13:57.713Z,31.50
2023-03-31T01:14:57.701Z,31.48
2023-03-31T01:15:57.670Z,31.48
2023-03-31T01:16:57.749Z,31.47
2023-03-31T01:17:57.775Z,31.49
2023-03-31T01:18:57.650Z,31.47
2023-03-31T01:19:57.580Z,31.45
2023-03-31T01:20:57.542Z,31.45
2023-03-31T01:21:57.508Z,31.46
2023-03-31T01:22:57.474Z,31.45
2023-03-31T01:23:57.475Z,31.43
2023-03-31T01:24:57.429Z,31.42
2023-03-31T01:25:57.410Z,31.40
2023-03-31T01:26:57.403Z,31.41
2023-03-31T01:27:57.381Z,31.39
2023-03-31T01:28:57.359Z,31.39
2023-03-31T01:29:57.321Z,31.38
2023-03-31T01:30:57.337Z,31.37
2023-03-31T01:31:57.271Z,31.37
2023-03-31T01:32:57.301Z,31.37
2023-03-31T01:33:57.227Z,31.35
2023-03-31T01:34:57.253Z,31.36
2023-03-31T01:35:57.320Z,31.32
2023-03-31T01:36:57.211Z,31.31
2023-03-31T01:37:57.239Z,31.29
2023-03-31T01:38:57.248Z,31.28
2023-03-31T01:39:57.258Z,31.28
2023-03-31T01:40:57.241Z,31.27
2023-03-31T01:41:57.231Z,31.25
2023-03-31T01:42:57.251Z,31.27
2023-03-31T01:43:57.259Z,31.26
2023-03-31T01:44:57.266Z,31.25
2023-03-31T01:45:57.289Z,31.23
2023-03-31T01:46:57.259Z,31.22
2023-03-31T01:47:57.319Z,31.20
2023-03-31T01:48:57.233Z,31.21
2023-03-31T01:49:57.217Z,31.19
2023-03-31T01:50:57.214Z,31.19
2023-03-31T01:51:57.231Z,31.17
2023-03-31T01:52:57.249Z,31.17
2023-03-31T01:53:57.228Z,31.16
2023-03-31T01:54:57.199Z,31.14
2023-03-31T01:55:57.217Z,31.14
2023-03-31T01:56:57.214Z,31.11
2023-03-31T01:57:57.182Z,31.11
2023-03-31T01:58:57.200Z,31.12
2023-03-31T01:59:57.208Z,31.10
2023-03-31T02:00:57.316Z,31.10
2023-03-31T02:01:57.250Z,31.10
2023-03-31T02:02:57.279Z,31.09
2023-03-31T02:03:57.273Z,31.06
2023-03-31T02:04:57.266Z,31.05
2023-03-31T02:05:57.276Z,31.07
2023-03-31T02:06:57.290Z,31.04
2023-03-31T02:07:57.250Z,31.05
2023-03-31T02:08:57.253Z,31.03
2023-03-31T02:09:57.246Z,31.01
2023-03-31T02:10:57.233Z,31.02
2023-03-31T02:11:57.208Z,31.01
2023-03-31T02:12:57.222Z,30.99
2023-03-31T02:13:57.246Z,30.98
2023-03-31T02:14:57.237Z,30.99
2023-03-31T02:15:57.209Z,30.98
2023-03-31T02:16:57.212Z,30.97
2023-03-31T02:17:57.232Z,30.94
2023-03-31T02:18:57.225Z,30.96
2023-03-31T02:19:57.219Z,30.94
2023-03-31T02:20:57.189Z,30.94
2023-03-31T02:21:57.220Z,30.94
2023-03-31T02:22:57.196Z,30.91
2023-03-31T02:23:57.177Z,30.89
2023-03-31T02:24:57.228Z,30.90
2023-03-31T02:25:57.189Z,30.88
2023-03-31T02:26:57.197Z,30.90
2023-03-31T02:27:57.191Z,30.85
2023-03-31T02:28:57.194Z,30.87
2023-03-31T02:29:57.203Z,30.85
2023-03-31T02:30:57.189Z,30.86
2023-03-31T02:31:57.295Z,30.85
2023-03-31T02:32:57.250Z,30.82
2023-03-31T02:33:57.221Z,30.84
2023-03-31T02:34:57.191Z,30.81
2023-03-31T02:35:57.183Z,30.82
2023-03-31T02:36:57.183Z,30.81
2023-03-31T02:37:57.214Z,30.79
2023-03-31T02:38:57.189Z,30.81
2023-03-31T02:39:57.196Z,30.79
2023-03-31T02:40:57.192Z,30.77
2023-03-31T02:41:57.197Z,30.77
2023-03-31T02:42:57.177Z,30.78
2023-03-31T02:43:57.197Z,30.76
2023-03-31T02:44:57.240Z,30.74
2023-03-31T02:45:57.251Z,30.76
2023-03-31T02:46:57.208Z,30.74
2023-03-31T02:47:57.250Z,30.72
2023-03-31T02:48:57.242Z,30.73
2023-03-31T02:49:57.225Z,30.72
2023-03-31T02:50:57.234Z,30.71
2023-03-31T02:51:57.193Z,30.69
2023-03-31T02:52:57.224Z,30.70
2023-03-31T02:53:57.216Z,30.69
2023-03-31T02:54:57.230Z,30.68
2023-03-31T02:55:57.233Z,30.70
2023-03-31T02:56:57.268Z,30.69
2023-03-31T02:57:57.292Z,30.67
2023-03-31T02:58:57.245Z,30.68
2023-03-31T02:59:57.240Z,30.67
2023-03-31T03:00:57.303Z,30.65
2023-03-31T03:01:57.288Z,30.64
2023-03-31T03:02:57.293Z,30.60
2023-03-31T03:03:57.292Z,30.58
2023-03-31T03:04:57.317Z,30.56
2023-03-31T03:05:57.353Z,30.54
2023-03-31T03:06:57.368Z,30.54
2023-03-31T03:07:57.330Z,30.50
2023-03-31T03:08:57.354Z,30.48
2023-03-31T03:09:57.382Z,30.46
2023-03-31T03:10:57.415Z,30.45
2023-03-31T03:11:57.477Z,30.41
2023-03-31T03:12:57.471Z,30.41
2023-03-31T03:13:57.490Z,30.37
2023-03-31T03:14:57.517Z,30.33
2023-03-31T03:15:57.542Z,30.30
2023-03-31T03:16:57.692Z,30.32
2023-03-31T03:17:57.560Z,30.28
2023-03-31T03:18:57.565Z,30.23
2023-03-31T03:19:57.597Z,30.22
2023-03-31T03:20:57.599Z,30.20
2023-03-31T03:21:57.611Z,30.18
2023-03-31T03:22:57.661Z,30.14
2023-03-31T03:23:57.653Z,30.12
2023-03-31T03:24:57.656Z,30.11
2023-03-31T03:25:57.668Z,30.09
2023-03-31T03:26:57.656Z,30.07
2023-03-31T03:27:57.678Z,30.07
2023-03-31T03:28:57.705Z,30.04
2023-03-31T03:29:57.672Z,30.00
2023-03-31T03:30:57.688Z,30.03
2023-03-31T03:31:57.712Z,29.98
2023-03-31T03:32:57.740Z,29.99
2023-03-31T03:33:57.732Z,29.96
2023-03-31T03:34:57.728Z,29.94
2023-03-31T03:35:57.734Z,29.93
2023-03-31T03:36:57.743Z,29.90
2023-03-31T03:37:57.757Z,29.88
2023-03-31T03:38:57.760Z,29.89
2023-03-31T03:39:57.742Z,29.87
2023-03-31T03:40:57.741Z,29.86
2023-03-31T03:41:57.763Z,29.85
2023-03-31T03:42:57.723Z,29.83
2023-03-31T03:43:57.746Z,29.82
2023-03-31T03:44:57.849Z,29.83
2023-03-31T03:45:57.784Z,29.80
2023-03-31T03:46:57.739Z,29.79
2023-03-31T03:47:57.733Z,29.76
2023-03-31T03:48:57.705Z,29.76
2023-03-31T03:49:57.731Z,29.75
2023-03-31T03:50:57.673Z,29.75
2023-03-31T03:51:57.678Z,29.72
2023-03-31T03:52:57.677Z,29.70
2023-03-31T03:53:57.669Z,29.70
2023-03-31T03:54:57.703Z,29.68
2023-03-31T03:55:57.659Z,29.69
2023-03-31T03:56:57.680Z,29.68
2023-03-31T03:57:57.664Z,29.66
2023-03-31T03:58:57.701Z,29.66
2023-03-31T03:59:57.692Z,29.65
2023-03-31T04:00:57.660Z,29.65
2023-03-31T04:01:57.694Z,29.65
2023-03-31T04:02:57.644Z,29.62
2023-03-31T04:03:57.619Z,29.61
2023-03-31T04:04:57.701Z,29.60
2023-03-31T04:05:57.611Z,29.63
2023-03-31T04:06:57.588Z,29.62
2023-03-31T04:07:57.606Z,29.60
2023-03-31T04:08:57.608Z,29.59
2023-03-31T04:09:57.589Z,29.59
2023-03-31T04:10:57.573Z,29.60
2023-03-31T04:11:57.622Z,29.60
2023-03-31T04:12:57.572Z,29.58
2023-03-31T04:13:57.586Z,29.58
2023-03-31T04:14:57.535Z,29.58
2023-03-31T04:15:57.606Z,29.57
2023-03-31T04:16:57.535Z,29.55
2023-03-31T04:17:57.610Z,29.55
2023-03-31T04:18:57.502Z,29.54
2023-03-31T04:19:57.503Z,29.54
2023-03-31T04:20:57.510Z,29.51
2023-03-31T04:21:57.487Z,29.50
2023-03-31T04:22:57.474Z,29.50
2023-03-31T04:23:57.438Z,29.50
2023-03-31T04:24:57.440Z,29.51
2023-03-31T04:25:57.458Z,29.48
2023-03-31T04:26:57.449Z,29.49
2023-03-31T04:27:57.420Z,29.47
2023-03-31T04:28:57.446Z,29.47
2023-03-31T04:29:57.384Z,29.47
2023-03-31T04:30:57.384Z,29.48
2023-03-31T04:31:57.393Z,29.45
2023-03-31T04:32:57.376Z,29.47
2023-03-31T04:33:57.329Z,29.45
2023-03-31T04:34:57.323Z,29.48
2023-03-31T04:35:57.372Z,29.46
2023-03-31T04:36:57.303Z,29.46
2023-03-31T04:37:57.307Z,29.45
2023-03-31T04:38:57.251Z,29.43
2023-03-31T04:39:57.252Z,29.45
2023-03-31T04:40:57.254Z,29.46
2023-03-31T04:41:57.222Z,29.44
2023-03-31T04:42:57.184Z,29.45
2023-03-31T04:43:57.199Z,29.43
2023-03-31T04:44:57.205Z,29.41
2023-03-31T04:45:57.238Z,29.43
2023-03-31T04:46:57.168Z,29.44
2023-03-31T04:47:57.160Z,29.42
2023-03-31T04:48:57.161Z,29.42
2023-03-31T04:49:57.144Z,29.41
2023-03-31T04:50:57.121Z,29.43
2023-03-31T04:51:57.102Z,29.42
2023-03-31T04:52:57.113Z,29.42
2023-03-31T04:53:57.048Z,29.42
2023-03-31T04:54:57.105Z,29.40
2023-03-31T04:55:57.055Z,29.40
2023-03-31T04:56:57.063Z,29.41
2023-03-31T04:57:56.982Z,29.39
2023-03-31T04:58:56.978Z,29.41
2023-03-31T04:59:56.946Z,29.40
2023-03-31T05:01:03.984Z,29.40
2023-03-31T05:01:56.920Z,29.42
2023-03-31T05:02:57.065Z,29.39
2023-03-31T05:03:56.872Z,29.38
2023-03-31T05:04:56.829Z,29.40
2023-03-31T05:05:56.796Z,29.38
2023-03-31T05:06:56.781Z,29.42
2023-03-31T05:07:56.720Z,29.42
2023-03-31T05:08:56.694Z,29.40
2023-03-31T05:09:56.649Z,29.42
2023-03-31T05:10:56.626Z,29.41
2023-03-31T05:11:56.592Z,29.40
2023-03-31T05:12:56.546Z,29.41
2023-03-31T05:13:56.476Z,29.41
2023-03-31T05:14:56.461Z,29.42
2023-03-31T05:15:56.409Z,29.40
2023-03-31T05:16:56.377Z,29.38
2023-03-31T05:17:56.377Z,29.37
2023-03-31T05:18:56.318Z,29.37
2023-03-31T05:19:56.268Z,29.37
2023-03-31T05:20:56.225Z,29.38
2023-03-31T05:21:56.202Z,29.39
2023-03-31T05:22:56.148Z,29.39
2023-03-31T05:23:56.121Z,29.39
2023-03-31T05:24:57.086Z,29.43
2023-03-31T05:25:56.009Z,29.41
2023-03-31T05:26:56.017Z,29.46
2023-03-31T05:27:55.965Z,29.44
2023-03-31T05:28:55.969Z,29.49
2023-03-31T05:29:55.859Z,29.53
2023-03-31T05:30:55.845Z,29.55
2023-03-31T05:31:55.831Z,29.62
2023-03-31T05:32:55.805Z,29.79
2023-03-31T05:33:55.745Z,29.89
2023-03-31T05:34:55.746Z,29.93
2023-03-31T05:35:55.786Z,30.20
2023-03-31T05:36:55.638Z,30.69
2023-03-31T05:37:55.621Z,30.97
2023-03-31T05:38:55.605Z,31.27
2023-03-31T05:39:55.574Z,31.18
2023-03-31T05:40:55.484Z,31.18
2023-03-31T05:41:55.493Z,31.71
2023-03-31T05:42:55.546Z,31.54
2023-03-31T05:43:55.546Z,31.33
2023-03-31T05:44:55.517Z,31.13
2023-03-31T05:46:02.583Z,31.10
2023-03-31T05:46:55.496Z,31.06
2023-03-31T05:47:55.519Z,31.01
2023-03-31T05:48:55.447Z,31.30
2023-03-31T05:49:55.622Z,31.22
2023-03-31T05:50:55.351Z,31.24
2023-03-31T05:51:55.671Z,31.41
2023-03-31T05:52:55.613Z,31.63
2023-03-31T05:53:55.298Z,31.54
2023-03-31T05:54:55.219Z,31.70
2023-03-31T05:55:55.140Z,31.66
2023-03-31T05:56:55.100Z,31.69
2023-03-31T05:57:55.036Z,31.78
2023-03-31T05:58:55.022Z,31.76
2023-03-31T05:59:54.924Z,31.76
2023-03-31T06:00:54.956Z,31.75
2023-03-31T06:01:54.966Z,31.85
2023-03-31T06:02:54.894Z,31.89
2023-03-31T06:03:54.790Z,31.95
2023-03-31T06:04:54.692Z,31.86
2023-03-31T06:05:54.641Z,32.00
2023-03-31T06:06:54.588Z,32.07
2023-03-31T06:07:54.556Z,31.94
2023-03-31T06:08:54.491Z,31.92
2023-03-31T06:09:54.473Z,31.94
2023-03-31T06:10:54.392Z,31.94
2023-03-31T06:11:54.372Z,32.07
2023-03-31T06:12:54.416Z,32.38
2023-03-31T06:13:54.287Z,32.30
2023-03-31T06:14:54.217Z,32.42
2023-03-31T06:15:54.190Z,32.44
2023-03-31T06:16:55.489Z,32.45
2023-03-31T06:17:54.091Z,32.48
2023-03-31T06:18:54.045Z,32.50
2023-03-31T06:19:54.012Z,32.51
2023-03-31T06:20:53.920Z,32.55
2023-03-31T06:21:53.883Z,32.57
2023-03-31T06:22:53.823Z,32.60
2023-03-31T06:23:53.834Z,32.62
2023-03-31T06:24:53.752Z,32.64
2023-03-31T06:25:53.705Z,32.65
2023-03-31T06:26:54.052Z,32.64
2023-03-31T06:27:53.595Z,32.65
2023-03-31T06:28:53.549Z,32.61
2023-03-31T06:29:53.520Z,32.64
2023-03-31T06:30:53.459Z,32.61
2023-03-31T06:31:53.476Z,32.59
2023-03-31T06:32:53.424Z,32.59
2023-03-31T06:33:53.348Z,32.55
2023-03-31T06:34:53.672Z,32.53
2023-03-31T06:35:53.236Z,32.51
2023-03-31T06:36:53.199Z,32.48
2023-03-31T06:37:53.176Z,32.47
2023-03-31T06:38:53.087Z,32.47
2023-03-31T06:39:53.072Z,32.46
2023-03-31T06:40:53.023Z,32.45
2023-03-31T06:41:52.986Z,32.43
2023-03-31T06:42:52.933Z,32.39
2023-03-31T06:43:52.890Z,32.35
2023-03-31T06:44:52.851Z,32.34
2023-03-31T06:45:53.885Z,32.34
2023-03-31T06:46:52.729Z,32.34
2023-03-31T06:47:52.804Z,32.33
2023-03-31T06:48:52.696Z,32.30
2023-03-31T06:49:52.630Z,32.29
2023-03-31T06:50:52.583Z,32.28
2023-03-31T06:51:52.549Z,32.27
2023-03-31T06:52:52.490Z,32.24
2023-03-31T06:53:52.475Z,32.23
2023-03-31T06:54:53.106Z,32.24
2023-03-31T06:55:52.378Z,32.25
2023-03-31T06:56:52.353Z,32.23
2023-03-31T06:57:52.322Z,32.22
2023-03-31T06:58:52.257Z,32.18
2023-03-31T06:59:52.249Z,32.17
2023-03-31T07:00:52.197Z,32.18
2023-03-31T07:01:52.226Z,32.16
2023-03-31T07:02:52.177Z,32.12
2023-03-31T07:03:52.010Z,32.13
2023-03-31T07:04:52.000Z,32.10
2023-03-31T07:05:51.976Z,32.09
2023-03-31T07:06:51.923Z,32.09
2023-03-31T07:07:51.865Z,32.07
2023-03-31T07:08:51.797Z,32.06
2023-03-31T07:09:51.780Z,32.05
2023-03-31T07:10:51.715Z,32.02
2023-03-31T07:11:51.692Z,31.98
2023-03-31T07:12:51.650Z,31.97
2023-03-31T07:13:51.597Z,31.96
2023-03-31T07:14:51.569Z,31.96
2023-03-31T07:15:51.688Z,31.95
2023-03-31T07:16:51.585Z,31.93
2023-03-31T07:17:51.523Z,31.91
2023-03-31T07:18:51.412Z,31.91
2023-03-31T07:19:51.385Z,31.89
2023-03-31T07:20:51.342Z,31.85
2023-03-31T07:21:51.318Z,31.83
2023-03-31T07:22:51.257Z,31.83
2023-03-31T07:23:51.199Z,31.80
2023-03-31T07:24:51.162Z,31.80
2023-03-31T07:25:51.141Z,31.79
2023-03-31T07:26:51.177Z,31.76
2023-03-31T07:27:51.062Z,31.74
2023-03-31T07:28:51.034Z,31.75
2023-03-31T07:29:50.960Z,31.73
2023-03-31T07:30:50.993Z,31.72
2023-03-31T07:31:50.964Z,31.70
2023-03-31T07:32:50.930Z,31.70
2023-03-31T07:33:50.892Z,31.68
2023-03-31T07:34:50.855Z,31.56
2023-03-31T07:36:10.928Z,31.48
2023-03-31T07:36:51.853Z,31.37
2023-03-31T07:37:50.783Z,31.38
2023-03-31T07:38:50.756Z,31.38
2023-03-31T07:39:50.691Z,31.49
2023-03-31T07:41:01.845Z,31.80
2023-03-31T07:41:51.643Z,31.84
2023-03-31T07:42:50.615Z,31.90
2023-03-31T07:43:50.613Z,31.84
2023-03-31T07:44:50.621Z,31.87
2023-03-31T07:45:50.542Z,31.81
2023-03-31T07:46:50.494Z,31.77
2023-03-31T07:47:50.557Z,31.73
2023-03-31T07:48:50.471Z,31.61
2023-03-31T07:49:50.405Z,31.67
2023-03-31T07:50:50.402Z,31.71
2023-03-31T07:51:50.369Z,31.64
2023-03-31T07:52:50.308Z,31.66
2023-03-31T07:53:50.331Z,31.62
2023-03-31T07:54:50.362Z,31.62
2023-03-31T07:55:50.690Z,31.62
2023-03-31T07:56:50.326Z,31.60
2023-03-31T07:57:50.397Z,31.60
2023-03-31T07:58:50.332Z,31.65
2023-03-31T07:59:50.338Z,31.62
2023-03-31T08:00:50.659Z,31.68
2023-03-31T08:01:50.428Z,31.70
2023-03-31T08:02:50.395Z,31.68
2023-03-31T08:03:50.456Z,31.69
2023-03-31T08:04:50.436Z,31.73
2023-03-31T08:05:52.391Z,31.74
2023-03-31T08:06:50.424Z,31.76
2023-03-31T08:07:50.455Z,31.75
2023-03-31T08:08:50.445Z,31.79
2023-03-31T08:09:50.449Z,31.80
2023-03-31T08:10:50.479Z,31.85
2023-03-31T08:11:50.476Z,31.86
2023-03-31T08:12:50.566Z,31.88
2023-03-31T08:13:50.502Z,31.93
2023-03-31T08:14:50.481Z,31.96
2023-03-31T08:15:50.598Z,31.98
2023-03-31T08:16:50.579Z,31.99
2023-03-31T08:17:50.623Z,32.00
2023-03-31T08:18:50.626Z,32.00
2023-03-31T08:19:50.641Z,32.00
2023-03-31T08:20:50.581Z,32.00
2023-03-31T08:21:50.587Z,32.01
2023-03-31T08:22:50.608Z,32.01
2023-03-31T08:23:50.628Z,32.06
2023-03-31T08:24:50.651Z,32.06
2023-03-31T08:25:50.664Z,32.07
2023-03-31T08:26:50.706Z,32.08
2023-03-31T08:27:50.715Z,32.19
2023-03-31T08:28:50.717Z,32.15
2023-03-31T08:29:50.723Z,32.15
2023-03-31T08:30:50.799Z,32.27
2023-03-31T08:31:50.806Z,32.30
2023-03-31T08:32:50.951Z,32.28
2023-03-31T08:33:50.826Z,32.29
2023-03-31T08:34:50.807Z,32.27
2023-03-31T08:35:51.221Z,32.25
2023-03-31T08:36:50.841Z,32.24
2023-03-31T08:37:50.852Z,32.24
2023-03-31T08:38:50.899Z,32.17
2023-03-31T08:39:50.882Z,32.10
2023-03-31T08:40:50.915Z,32.07
2023-03-31T08:41:50.927Z,32.02
2023-03-31T08:42:50.919Z,31.99
2023-03-31T08:43:50.934Z,31.92
2023-03-31T08:44:50.914Z,31.92
2023-03-31T08:45:50.986Z,31.88
2023-03-31T08:46:50.951Z,31.87
2023-03-31T08:47:51.010Z,31.82
2023-03-31T08:48:50.916Z,31.81
2023-03-31T08:49:50.945Z,31.79
2023-03-31T08:50:51.232Z,32.05
2023-03-31T08:51:50.911Z,32.76
2023-03-31T08:52:50.961Z,32.83
2023-03-31T08:53:50.988Z,32.73
2023-03-31T08:54:50.941Z,32.74
2023-03-31T08:55:50.980Z,33.88
2023-03-31T08:56:50.986Z,33.22
2023-03-31T08:57:50.918Z,33.46
2023-03-31T08:58:50.945Z,33.30
2023-03-31T08:59:50.909Z,34.36
2023-03-31T09:00:51.242Z,34.01
2023-03-31T09:01:56.122Z,33.23
2023-03-31T09:02:51.945Z,33.29
2023-03-31T09:03:50.916Z,32.95
2023-03-31T09:04:50.835Z,32.67
2023-03-31T09:06:00.193Z,32.63
2023-03-31T09:06:51.892Z,32.54
2023-03-31T09:07:50.972Z,32.49
2023-03-31T09:08:50.830Z,32.46
2023-03-31T09:09:50.562Z,32.38
2023-03-31T09:10:50.550Z,32.33
2023-03-31T09:11:50.470Z,32.15
2023-03-31T09:12:50.623Z,32.07
2023-03-31T09:13:50.383Z,32.06
2023-03-31T09:14:50.398Z,32.00
2023-03-31T09:15:50.337Z,32.00
2023-03-31T09:16:50.301Z,31.90
2023-03-31T09:17:50.302Z,31.86
2023-03-31T09:18:50.177Z,31.88
2023-03-31T09:19:50.228Z,31.79
2023-03-31T09:20:50.133Z,31.73
2023-03-31T09:21:50.221Z,31.74
2023-03-31T09:22:50.014Z,31.72
2023-03-31T09:23:49.988Z,31.65
2023-03-31T09:24:49.945Z,31.71
2023-03-31T09:25:49.898Z,31.70
2023-03-31T09:26:49.869Z,31.63
2023-03-31T09:27:49.810Z,31.56
2023-03-31T09:28:49.810Z,31.55
2023-03-31T09:29:49.772Z,31.58
2023-03-31T09:30:49.808Z,31.61
2023-03-31T09:31:49.757Z,31.63
2023-03-31T09:32:49.760Z,31.75
2023-03-31T09:33:49.704Z,31.71
2023-03-31T09:34:49.726Z,31.68
2023-03-31T09:35:51.534Z,31.62
2023-03-31T09:36:50.243Z,31.59
2023-03-31T09:37:49.742Z,31.53
2023-03-31T09:38:49.716Z,31.51
2023-03-31T09:39:49.726Z,31.51
2023-03-31T09:40:49.710Z,31.47
2023-03-31T09:41:49.771Z,31.39
2023-03-31T09:42:49.661Z,31.36
2023-03-31T09:43:49.677Z,31.35
2023-03-31T09:44:49.722Z,31.39
2023-03-31T09:46:01.403Z,31.36
2023-03-31T09:46:50.585Z,31.35
2023-03-31T09:47:49.624Z,31.27
2023-03-31T09:48:49.465Z,31.30
2023-03-31T09:49:53.993Z,31.28
2023-03-31T09:50:50.416Z,31.28
2023-03-31T09:51:49.355Z,31.23
2023-03-31T09:52:49.338Z,31.25
2023-03-31T09:53:49.285Z,31.26
2023-03-31T09:54:49.239Z,31.27
2023-03-31T09:55:49.230Z,31.31
2023-03-31T09:56:49.200Z,31.47
2023-03-31T09:57:49.107Z,31.39
2023-03-31T09:58:49.087Z,31.35
2023-03-31T09:59:49.029Z,31.41
2023-03-31T10:00:48.979Z,31.42
2023-03-31T10:01:49.013Z,31.42
2023-03-31T10:02:48.960Z,31.41
2023-03-31T10:03:48.842Z,31.41
2023-03-31T10:04:48.783Z,31.40
2023-03-31T10:05:48.740Z,31.41
2023-03-31T10:06:48.732Z,31.41
2023-03-31T10:07:48.708Z,31.39
2023-03-31T10:08:48.673Z,31.40
2023-03-31T10:09:48.658Z,31.40
2023-03-31T10:10:48.627Z,31.41
2023-03-31T10:11:48.627Z,31.42
2023-03-31T10:12:48.648Z,31.43
2023-03-31T10:13:48.628Z,31.43
2023-03-31T10:14:48.584Z,31.44
2023-03-31T10:15:48.587Z,31.41
2023-03-31T10:16:48.745Z,31.43
2023-03-31T10:17:54.736Z,31.44
2023-03-31T10:18:49.544Z,31.42
2023-03-31T10:19:48.403Z,31.43
2023-03-31T10:20:48.418Z,31.42
2023-03-31T10:21:48.344Z,31.42
2023-03-31T10:22:48.295Z,31.44
2023-03-31T10:23:48.247Z,31.42
2023-03-31T10:24:48.830Z,31.42
2023-03-31T10:25:48.172Z,31.41
2023-03-31T10:26:48.132Z,31.40
2023-03-31T10:27:48.094Z,31.42
2023-03-31T10:28:48.030Z,31.41
2023-03-31T10:29:48.042Z,31.41
2023-03-31T10:30:47.928Z,31.42
2023-03-31T10:31:47.912Z,31.42
2023-03-31T10:32:51.203Z,31.42
2023-03-31T10:33:47.839Z,31.44
2023-03-31T10:34:47.778Z,31.42
2023-03-31T10:35:47.743Z,31.41
2023-03-31T10:36:47.662Z,31.43
2023-03-31T10:37:47.746Z,31.45
2023-03-31T10:38:47.630Z,31.46
2023-03-31T10:39:47.570Z,31.66
2023-03-31T10:40:47.580Z,31.55
2023-03-31T10:41:47.472Z,31.53
2023-03-31T10:42:47.464Z,31.52
2023-03-31T10:43:47.426Z,32.26
2023-03-31T10:44:47.373Z,32.07
2023-03-31T10:45:48.105Z,32.73
2023-03-31T10:46:47.505Z,33.40
2023-03-31T10:47:47.346Z,33.12
2023-03-31T10:48:47.309Z,33.30
2023-03-31T10:49:47.258Z,33.09
2023-03-31T10:50:47.144Z,33.11
2023-03-31T10:51:47.104Z,33.01
2023-03-31T10:52:47.095Z,32.91
2023-03-31T10:53:47.078Z,32.69
2023-03-31T10:54:47.022Z,32.72
2023-03-31T10:55:46.976Z,32.68
2023-03-31T10:56:48.936Z,32.67
2023-03-31T10:57:47.406Z,32.58
2023-03-31T10:58:58.158Z,32.53
2023-03-31T10:59:47.855Z,32.55
2023-03-31T11:00:46.831Z,32.52
2023-03-31T11:01:46.955Z,32.49
2023-03-31T11:02:46.906Z,32.48
2023-03-31T11:03:46.876Z,32.46
2023-03-31T11:04:46.784Z,32.42
2023-03-31T11:05:46.749Z,32.39
2023-03-31T11:06:46.740Z,32.37
2023-03-31T11:07:46.709Z,32.38
2023-03-31T11:08:46.661Z,32.34
2023-03-31T11:09:46.633Z,32.39
2023-03-31T11:10:46.578Z,32.31
2023-03-31T11:11:47.055Z,32.34
2023-03-31T11:12:46.794Z,32.34
2023-03-31T11:13:46.434Z,32.31
2023-03-31T11:14:46.444Z,32.29
2023-03-31T11:15:46.422Z,32.31
2023-03-31T11:16:46.383Z,32.28
2023-03-31T11:17:46.335Z,32.25
2023-03-31T11:18:46.257Z,32.28
2023-03-31T11:19:46.228Z,32.23
2023-03-31T11:20:46.211Z,32.21
2023-03-31T11:21:46.167Z,32.22
2023-03-31T11:22:46.196Z,32.22
2023-03-31T11:23:46.184Z,32.22
2023-03-31T11:24:46.165Z,32.21
2023-03-31T11:25:46.167Z,32.18
2023-03-31T11:26:46.120Z,32.17
2023-03-31T11:27:46.278Z,32.17
2023-03-31T11:28:46.127Z,32.16
2023-03-31T11:29:46.139Z,32.15
2023-03-31T11:30:46.090Z,32.14
2023-03-31T11:31:46.115Z,32.13
2023-03-31T11:32:46.299Z,32.11
2023-03-31T11:33:46.104Z,32.11
2023-03-31T11:34:46.096Z,32.12
2023-03-31T11:35:46.132Z,32.10
2023-03-31T11:36:46.062Z,32.07
2023-03-31T11:37:46.284Z,32.09
2023-03-31T11:38:46.038Z,32.09
2023-03-31T11:39:46.048Z,32.08
2023-03-31T11:40:46.030Z,32.10
2023-03-31T11:41:46.068Z,32.08
2023-03-31T11:42:46.027Z,32.06
2023-03-31T11:43:45.969Z,32.04
2023-03-31T11:44:46.019Z,32.03
2023-03-31T11:45:46.022Z,32.02
2023-03-31T11:46:45.946Z,32.04
2023-03-31T11:47:45.978Z,32.01
2023-03-31T11:48:45.913Z,32.01
2023-03-31T11:49:45.912Z,32.01
2023-03-31T11:50:45.899Z,32.05
2023-03-31T11:51:45.897Z,32.02
2023-03-31T11:52:45.902Z,32.02
2023-03-31T11:53:45.849Z,32.07
2023-03-31T11:54:45.848Z,32.03
2023-03-31T11:55:45.861Z,32.00
2023-03-31T11:56:45.828Z,32.03
2023-03-31T11:57:45.794Z,32.01
2023-03-31T11:58:45.811Z,32.01
2023-03-31T11:59:45.778Z,32.04
2023-03-31T12:00:45.787Z,32.02
2023-03-31T12:01:45.797Z,32.01
2023-03-31T12:02:45.842Z,32.03
2023-03-31T12:03:45.818Z,32.02
2023-03-31T12:04:45.746Z,32.03
2023-03-31T12:05:45.780Z,32.63
2023-03-31T12:06:45.711Z,33.32
2023-03-31T12:07:45.728Z,33.63
2023-03-31T12:08:45.713Z,33.78
2023-03-31T12:09:45.709Z,35.34
2023-03-31T12:10:45.702Z,37.53
2023-03-31T12:11:45.678Z,36.94
2023-03-31T12:12:45.705Z,36.57
2023-03-31T12:13:45.697Z,37.04
2023-03-31T12:14:45.730Z,37.15
2023-03-31T12:15:45.739Z,37.33
2023-03-31T12:16:45.734Z,36.80
2023-03-31T12:17:45.764Z,36.74
2023-03-31T12:18:45.700Z,36.66
2023-03-31T12:19:45.714Z,36.48
2023-03-31T12:20:45.690Z,36.50
2023-03-31T12:21:45.665Z,36.56
2023-03-31T12:22:45.673Z,36.82
2023-03-31T12:23:45.715Z,36.99
2023-03-31T12:24:45.683Z,36.84
2023-03-31T12:25:45.671Z,36.96
2023-03-31T12:26:45.681Z,36.98
2023-03-31T12:27:45.654Z,36.91
2023-03-31T12:28:45.671Z,37.11
2023-03-31T12:29:45.635Z,37.18
2023-03-31T12:30:45.636Z,37.00
2023-03-31T12:31:45.656Z,36.96
2023-03-31T12:32:45.679Z,36.98
2023-03-31T12:33:45.591Z,36.98
2023-03-31T12:34:45.571Z,36.96
2023-03-31T12:35:45.619Z,36.86
2023-03-31T12:36:45.555Z,36.87
2023-03-31T12:37:45.557Z,36.94
2023-03-31T12:38:45.571Z,36.90
2023-03-31T12:39:45.542Z,36.84
2023-03-31T12:40:45.513Z,36.85
2023-03-31T12:41:45.495Z,36.87
2023-03-31T12:42:45.521Z,36.77
2023-03-31T12:43:45.523Z,36.77
2023-03-31T12:44:45.521Z,36.85
2023-03-31T12:45:45.512Z,36.74
2023-03-31T12:46:45.530Z,36.70
2023-03-31T12:47:45.489Z,36.63
2023-03-31T12:48:45.471Z,36.66
2023-03-31T12:49:45.446Z,36.63
2023-03-31T12:50:45.463Z,36.59
2023-03-31T12:51:45.448Z,36.49
2023-03-31T12:52:45.436Z,36.49